createdAt,value
2022-12-13T00:00:34.212Z,99848.75
2022-12-13T00:03:00.556Z,99854.63
2022-12-13T00:05:26.886Z,99855.19
2022-12-13T00:07:53.269Z,99844.66
2022-12-13T00:10:19.700Z,99848.94
2022-12-13T00:12:46.151Z,99841.06
2022-12-13T00:15:12.958Z,99843.63
2022-12-13T00:17:39.725Z,99836.00
2022-12-13T00:20:06.519Z,99834.72
2022-12-13T00:22:32.920Z,99835.41
2022-12-13T00:24:59.328Z,99829.50
2022-12-13T00:27:25.678Z,99826.47
2022-12-13T00:29:52.165Z,99820.91
2022-12-13T00:32:18.624Z,99811.44
2022-12-13T00:34:45.040Z,99815.78
2022-12-13T00:37:11.596Z,99815.25
2022-12-13T00:39:38.583Z,99822.84
2022-12-13T00:42:05.718Z,99816.44
2022-12-13T00:44:32.228Z,99810.28
2022-12-13T00:46:58.691Z,99805.03
2022-12-13T00:49:25.164Z,99800.72
2022-12-13T00:51:51.710Z,99800.47
2022-12-13T00:54:18.427Z,99808.19
2022-12-13T00:56:44.815Z,99806.78
2022-12-13T00:59:14.346Z,99798.03
2022-12-13T01:01:40.938Z,99802.75
2022-12-13T01:04:07.856Z,99791.50
2022-12-13T01:06:40.276Z,99796.00
2022-12-13T01:09:14.413Z,99796.69
2022-12-13T01:11:40.851Z,99802.16
2022-12-13T01:14:07.493Z,99803.13
2022-12-13T01:16:33.971Z,99808.16
2022-12-13T01:19:00.446Z,99819.38
2022-12-13T01:21:26.795Z,99811.38
2022-12-13T01:23:53.259Z,99811.25
2022-12-13T01:26:21.585Z,99817.78
2022-12-13T01:28:48.461Z,99811.75
2022-12-13T01:31:17.536Z,99815.03
2022-12-13T01:33:44.545Z,99805.09
2022-12-13T01:36:14.782Z,99801.88
2022-12-13T01:38:41.181Z,99801.06
2022-12-13T01:41:16.687Z,99803.47
2022-12-13T01:43:44.401Z,99804.69
2022-12-13T01:46:12.061Z,99803.78
2022-12-13T01:48:44.662Z,99798.72
2022-12-13T01:51:15.241Z,99795.03
2022-12-13T01:53:43.620Z,99794.25
2022-12-13T01:56:15.485Z,99796.69
2022-12-13T01:58:41.954Z,99795.28
2022-12-13T02:01:08.973Z,99790.50
2022-12-13T02:03:35.895Z,99796.78
2022-12-13T02:06:07.959Z,99795.09
2022-12-13T02:08:36.009Z,99789.97
2022-12-13T02:11:04.339Z,99791.69
2022-12-13T02:13:30.970Z,99795.38
2022-12-13T02:16:23.194Z,99800.47
2022-12-13T02:19:35.640Z,99795.72
2022-12-13T02:22:40.535Z,99802.97
2022-12-13T02:25:28.829Z,99795.16
2022-12-13T02:28:30.568Z,99793.16
2022-12-13T02:30:58.965Z,99797.16
2022-12-13T02:33:35.996Z,99799.53
2022-12-13T02:36:11.543Z,99798.16
2022-12-13T02:39:09.763Z,99795.47
2022-12-13T02:41:44.233Z,99789.78
2022-12-13T02:44:25.547Z,99786.78
2022-12-13T02:46:56.252Z,99774.69
2022-12-13T02:49:25.799Z,99785.16
2022-12-13T02:51:52.825Z,99773.31
2022-12-13T02:54:19.288Z,99776.53
2022-12-13T02:56:57.062Z,99779.97
2022-12-13T02:59:30.355Z,99770.38
2022-12-13T03:02:34.367Z,99771.38
2022-12-13T03:05:34.065Z,99772.13
2022-12-13T03:08:21.709Z,99770.63
2022-12-13T03:11:08.320Z,99774.94
2022-12-13T03:13:44.917Z,99770.53
2022-12-13T03:16:22.940Z,99772.41
2022-12-13T03:18:53.064Z,99774.81
2022-12-13T03:21:19.444Z,99779.22
2022-12-13T03:23:47.183Z,99778.47
2022-12-13T03:26:18.275Z,99777.38
2022-12-13T03:28:44.632Z,99778.19
2022-12-13T03:31:11.127Z,99783.59
2022-12-13T03:33:41.153Z,99792.81
2022-12-13T03:36:09.398Z,99785.88
2022-12-13T03:38:36.602Z,99790.31
2022-12-13T03:41:06.905Z,99790.25
2022-12-13T03:43:33.444Z,99791.00
2022-12-13T03:46:01.139Z,99787.50
2022-12-13T03:48:27.975Z,99788.50
2022-12-13T03:50:55.039Z,99780.69
2022-12-13T03:53:33.227Z,99783.44
2022-12-13T03:56:01.472Z,99780.81
2022-12-13T03:58:34.780Z,99775.59
2022-12-13T04:01:09.463Z,99770.16
2022-12-13T04:03:37.769Z,99769.97
2022-12-13T04:06:05.455Z,99776.97
2022-12-13T04:08:32.447Z,99771.69
2022-12-13T04:10:58.980Z,99776.41
2022-12-13T04:13:34.335Z,99770.97
2022-12-13T04:16:03.914Z,99771.81
2022-12-13T04:18:30.444Z,99767.50
2022-12-13T04:20:58.156Z,99770.34
2022-12-13T04:23:24.697Z,99764.28
2022-12-13T04:25:51.252Z,99773.81
2022-12-13T04:28:21.982Z,99760.22
2022-12-13T04:30:53.429Z,99774.63
2022-12-13T04:33:21.533Z,99769.50
2022-12-13T04:35:48.528Z,99771.66
2022-12-13T04:38:15.104Z,99781.31
2022-12-13T04:40:41.520Z,99780.72
2022-12-13T04:43:07.895Z,99768.81
2022-12-13T04:45:34.265Z,99777.50
2022-12-13T04:48:00.624Z,99780.28
2022-12-13T04:50:27.077Z,99779.22
2022-12-13T04:52:53.461Z,99776.25
2022-12-13T04:55:19.911Z,99779.34
2022-12-13T04:57:46.344Z,99772.91
2022-12-13T05:00:13.422Z,99780.50
2022-12-13T05:02:41.533Z,99773.28
2022-12-13T05:05:11.683Z,99776.25
2022-12-13T05:07:42.693Z,99771.59
2022-12-13T05:10:10.984Z,99777.34
2022-12-13T05:12:37.472Z,99773.59
2022-12-13T05:15:04.292Z,99771.06
2022-12-13T05:17:30.822Z,99766.66
2022-12-13T05:19:57.289Z,99769.19
2022-12-13T05:22:23.627Z,99760.50
2022-12-13T05:24:50.925Z,99755.31
2022-12-13T05:27:25.048Z,99769.34
2022-12-13T05:30:03.698Z,99763.78
2022-12-13T05:32:43.487Z,99751.00
2022-12-13T05:35:13.141Z,99756.66
2022-12-13T05:37:39.774Z,99743.69
2022-12-13T05:40:06.846Z,99757.34
2022-12-13T05:42:33.348Z,99744.28
2022-12-13T05:44:59.776Z,99737.00
2022-12-13T05:47:26.200Z,99734.44
2022-12-13T05:49:52.587Z,99746.28
2022-12-13T05:52:21.179Z,99743.25
2022-12-13T05:54:47.954Z,99747.75
2022-12-13T05:57:15.374Z,99743.31
2022-12-13T05:59:41.764Z,99741.75
2022-12-13T06:02:08.267Z,99736.78
2022-12-13T06:04:34.843Z,99746.13
2022-12-13T06:07:01.215Z,99753.31
2022-12-13T06:09:27.558Z,99750.38
2022-12-13T06:12:01.173Z,99753.09
2022-12-13T06:14:27.913Z,99761.88
2022-12-13T06:16:54.517Z,99760.09
2022-12-13T06:19:22.096Z,99755.47
2022-12-13T06:21:49.848Z,99749.09
2022-12-13T06:24:18.842Z,99757.66
2022-12-13T06:26:45.695Z,99755.88
2022-12-13T06:29:23.415Z,99757.69
2022-12-13T06:32:02.542Z,99760.34
2022-12-13T06:34:30.981Z,99756.19
2022-12-13T06:36:57.448Z,99758.03
2022-12-13T06:39:23.949Z,99749.28
2022-12-13T06:41:50.326Z,99751.63
2022-12-13T06:44:16.710Z,99749.91
2022-12-13T06:46:43.062Z,99758.34
2022-12-13T06:49:09.657Z,99758.34
2022-12-13T06:51:36.084Z,99765.28
2022-12-13T06:54:03.043Z,99762.34
2022-12-13T06:56:30.901Z,99766.00
2022-12-13T06:59:01.639Z,99763.00
2022-12-13T07:01:28.953Z,99780.78
2022-12-13T07:04:04.187Z,99770.44
2022-12-13T07:06:30.564Z,99776.22
2022-12-13T07:08:58.072Z,99775.16
2022-12-13T07:11:29.616Z,99779.25
2022-12-13T07:13:56.588Z,99763.38
2022-12-13T07:16:23.915Z,99779.94
2022-12-13T07:19:01.231Z,99762.94
2022-12-13T07:21:29.069Z,99760.72
2022-12-13T07:23:55.744Z,99764.13
2022-12-13T07:26:22.967Z,99767.72
2022-12-13T07:28:54.788Z,99767.78
2022-12-13T07:31:21.717Z,99780.69
2022-12-13T07:33:48.169Z,99785.53
2022-12-13T07:36:17.097Z,99783.75
2022-12-13T07:38:43.634Z,99775.00
2022-12-13T07:41:11.866Z,99789.06
2022-12-13T07:43:38.352Z,99781.44
2022-12-13T07:46:06.408Z,99776.34
2022-12-13T07:48:33.406Z,99767.22
2022-12-13T07:51:06.805Z,99770.72
2022-12-13T07:53:34.089Z,99774.47
2022-12-13T07:56:05.189Z,99780.16
2022-12-13T07:58:33.375Z,99786.50
2022-12-13T08:01:01.890Z,99785.69
2022-12-13T08:03:29.695Z,99790.81
2022-12-13T08:06:04.390Z,99777.09
2022-12-13T08:08:32.091Z,99778.66
2022-12-13T08:11:09.945Z,99771.50
2022-12-13T08:13:36.932Z,99774.22
2022-12-13T08:16:27.120Z,99779.59
2022-12-13T08:18:53.741Z,99774.47
2022-12-13T08:24:20.066Z,99768.56
2022-12-13T08:26:46.481Z,99772.22
2022-12-13T08:29:13.240Z,99773.97
2022-12-13T08:31:50.164Z,99778.47
2022-12-13T08:34:16.599Z,99774.31
2022-12-13T08:36:42.949Z,99769.78
2022-12-13T08:39:09.339Z,99768.38
2022-12-13T08:41:39.138Z,99774.50
2022-12-13T08:44:06.267Z,99780.63
2022-12-13T08:46:32.666Z,99787.44
2022-12-13T08:48:59.196Z,99798.72
2022-12-13T08:51:29.493Z,99804.09
2022-12-13T08:54:10.753Z,99807.56
2022-12-13T08:56:38.068Z,99811.00
2022-12-13T08:59:04.662Z,99808.38
2022-12-13T09:01:31.182Z,99818.09
2022-12-13T09:03:57.551Z,99822.53
2022-12-13T09:06:23.947Z,99813.28
2022-12-13T09:08:53.386Z,99793.44
2022-12-13T09:11:23.955Z,99794.31
2022-12-13T09:14:01.733Z,99779.06
2022-12-13T09:16:35.568Z,99789.50
2022-12-13T09:19:25.547Z,99786.28
2022-12-13T09:21:52.637Z,99788.44
2022-12-13T09:24:29.427Z,99799.66
2022-12-13T09:27:03.401Z,99795.56
2022-12-13T09:29:37.191Z,99801.34
2022-12-13T09:32:03.900Z,99793.00
2022-12-13T09:34:30.399Z,99804.16
2022-12-13T09:37:01.182Z,99808.81
2022-12-13T09:39:28.327Z,99812.88
2022-12-13T09:42:00.736Z,99808.94
2022-12-13T09:44:45.347Z,99808.75
2022-12-13T09:47:22.854Z,99801.16
2022-12-13T09:49:52.593Z,99803.75
2022-12-13T09:52:23.729Z,99800.81
2022-12-13T09:54:53.645Z,99806.19
2022-12-13T09:57:31.496Z,99794.28
2022-12-13T10:00:02.476Z,99787.56
2022-12-13T10:02:32.132Z,99793.34
2022-12-13T10:05:22.702Z,99793.22
2022-12-13T10:07:52.895Z,99780.38
2022-12-13T10:10:23.427Z,99784.59
2022-12-13T10:13:03.558Z,99766.16
2022-12-13T10:15:33.160Z,99761.13
2022-12-13T10:17:59.872Z,99764.94
2022-12-13T10:20:28.906Z,99775.25
2022-12-13T10:23:31.170Z,99767.41
2022-12-13T10:25:46.518Z,99774.19
2022-12-13T10:28:20.671Z,99758.00
2022-12-13T10:30:47.056Z,99757.13
2022-12-13T10:33:24.720Z,99757.84
2022-12-13T10:36:04.871Z,99756.34
2022-12-13T10:38:35.999Z,99764.06
2022-12-13T10:41:02.963Z,99759.81
2022-12-13T10:43:32.867Z,99754.84
2022-12-13T10:46:01.462Z,99751.53
2022-12-13T10:48:38.319Z,99756.25
2022-12-13T10:51:17.886Z,99750.00
2022-12-13T10:53:51.159Z,99750.81
2022-12-13T10:56:23.041Z,99750.19
2022-12-13T10:59:13.413Z,99746.84
2022-12-13T11:01:41.726Z,99743.25
2022-12-13T11:04:27.875Z,99741.44
2022-12-13T11:06:56.115Z,99747.50
2022-12-13T11:09:29.897Z,99740.56
2022-12-13T11:12:14.529Z,99731.84
2022-12-13T11:14:52.515Z,99733.66
2022-12-13T11:17:22.471Z,99728.78
2022-12-13T11:19:52.523Z,99736.53
2022-12-13T11:22:22.968Z,99724.44
2022-12-13T11:24:52.225Z,99718.38
2022-12-13T11:27:36.883Z,99711.66
2022-12-13T11:30:35.640Z,99714.22
2022-12-13T11:33:26.248Z,99712.56
2022-12-13T11:36:11.557Z,99699.59
2022-12-13T11:38:59.264Z,99692.59
2022-12-13T11:41:49.998Z,99692.69
2022-12-13T11:44:27.717Z,99685.63
2022-12-13T11:47:10.834Z,99699.50
2022-12-13T11:49:41.871Z,99703.19
2022-12-13T11:52:24.197Z,99692.03
2022-12-13T11:54:58.960Z,99682.59
2022-12-13T11:57:31.351Z,99668.44
2022-12-13T12:00:13.065Z,99669.25
2022-12-13T12:02:45.856Z,99669.09
2022-12-13T12:05:28.334Z,99653.59
2022-12-13T12:10:58.014Z,99667.44
2022-12-13T12:13:51.270Z,99666.38
2022-12-13T12:16:33.894Z,99651.63
2022-12-13T12:19:01.522Z,99644.75
2022-12-13T12:22:13.346Z,99650.84
2022-12-13T12:25:07.499Z,99641.31
2022-12-13T12:28:08.276Z,99647.34
2022-12-13T12:30:57.795Z,99651.91
2022-12-13T12:33:26.975Z,99653.69
2022-12-13T12:36:24.619Z,99653.59
2022-12-13T12:39:14.135Z,99644.06
2022-12-13T12:41:45.571Z,99642.47
2022-12-13T12:44:30.253Z,99642.25
2022-12-13T12:47:35.498Z,99642.34
2022-12-13T12:50:11.332Z,99639.88
2022-12-13T12:52:49.430Z,99658.88
2022-12-13T12:55:28.284Z,99656.19
2022-12-13T12:58:03.647Z,99653.75
2022-12-13T13:00:55.742Z,99652.81
2022-12-13T13:03:25.495Z,99650.94
2022-12-13T13:06:16.647Z,99645.75
2022-12-13T13:09:05.004Z,99644.19
2022-12-13T13:11:42.783Z,99644.97
2022-12-13T13:14:35.397Z,99657.16
2022-12-13T13:17:17.052Z,99645.94
2022-12-13T13:19:48.523Z,99642.59
2022-12-13T13:22:44.275Z,99639.97
2022-12-13T13:25:17.924Z,99630.47
2022-12-13T13:27:45.921Z,99632.19
2022-12-13T13:30:24.076Z,99633.09
2022-12-13T13:32:53.256Z,99644.38
2022-12-13T13:35:37.682Z,99635.75
2022-12-13T13:38:23.977Z,99633.94
2022-12-13T13:40:50.947Z,99635.69
2022-12-13T13:43:32.228Z,99632.13
2022-12-13T13:46:02.104Z,99619.88
2022-12-13T13:48:58.681Z,99613.00
2022-12-13T13:52:16.654Z,99606.72
2022-12-13T13:55:15.333Z,99614.66
2022-12-13T13:58:10.736Z,99600.81
2022-12-13T14:01:13.159Z,99605.09
2022-12-13T14:04:14.985Z,99602.50
2022-12-13T14:07:23.452Z,99610.38
2022-12-13T14:10:22.341Z,99620.81
2022-12-13T14:13:19.675Z,99627.84
2022-12-13T14:16:23.610Z,99626.84
2022-12-13T14:19:15.568Z,99624.19
2022-12-13T14:22:11.884Z,99620.00
2022-12-13T14:25:06.583Z,99627.00
2022-12-13T14:27:39.596Z,99629.50
2022-12-13T14:30:26.869Z,99620.72
2022-12-13T14:32:55.537Z,99613.72
2022-12-13T14:35:26.022Z,99609.28
2022-12-13T14:37:59.022Z,99607.53
2022-12-13T14:40:30.864Z,99604.78
2022-12-13T14:42:57.669Z,99605.56
2022-12-13T14:45:36.662Z,99601.31
2022-12-13T14:48:14.239Z,99600.34
2022-12-13T14:50:43.857Z,99601.19
2022-12-13T14:53:25.431Z,99600.25
2022-12-13T14:56:05.843Z,99609.78
2022-12-13T14:58:32.584Z,99609.81
2022-12-13T15:00:59.329Z,99601.09
2022-12-13T15:03:27.716Z,99595.84
2022-12-13T15:06:03.544Z,99607.13
2022-12-13T15:08:32.949Z,99608.88
2022-12-13T15:11:00.281Z,99607.91
2022-12-13T15:13:32.808Z,99597.47
2022-12-13T15:16:10.462Z,99598.38
2022-12-13T15:18:38.338Z,99603.56
2022-12-13T15:21:20.601Z,99598.38
2022-12-13T15:23:49.577Z,99591.41
2022-12-13T15:26:28.909Z,99579.22
2022-12-13T15:29:09.553Z,99563.59
2022-12-13T15:31:38.024Z,99564.34
2022-12-13T15:34:29.518Z,99567.00
2022-12-13T15:36:59.344Z,99566.06
2022-12-13T15:39:27.923Z,99548.66
2022-12-13T15:41:55.975Z,99545.16
2022-12-13T15:44:32.372Z,99531.28
2022-12-13T15:47:10.768Z,99535.63
2022-12-13T15:49:52.632Z,99533.03
2022-12-13T15:52:29.298Z,99523.53
2022-12-13T15:55:02.796Z,99526.19
2022-12-13T15:57:35.182Z,99523.44
2022-12-13T16:00:31.025Z,99516.50
2022-12-13T16:03:21.855Z,99520.88
2022-12-13T16:05:56.591Z,99520.97
2022-12-13T16:08:28.899Z,99513.16
2022-12-13T16:10:56.339Z,99527.03
2022-12-13T16:13:27.269Z,99518.38
2022-12-13T16:16:08.883Z,99519.22
2022-12-13T16:18:51.153Z,99516.63
2022-12-13T16:21:17.538Z,99528.75
2022-12-13T16:23:48.648Z,99527.00
2022-12-13T16:26:20.596Z,99528.66
2022-12-13T16:28:46.965Z,99519.13
2022-12-13T16:31:21.435Z,99515.66
2022-12-13T16:33:48.596Z,99521.66
2022-12-13T16:36:15.436Z,99527.81
2022-12-13T16:38:42.057Z,99511.25
2022-12-13T16:41:09.749Z,99513.94
2022-12-13T16:43:57.207Z,99513.88
2022-12-13T16:47:11.403Z,99512.94
2022-12-13T16:49:28.950Z,99513.00
2022-12-13T16:51:56.194Z,99524.22
2022-12-13T16:54:24.988Z,99516.47
2022-12-13T16:56:51.944Z,99496.41
2022-12-13T16:59:22.382Z,99499.13
2022-12-13T17:01:50.210Z,99494.72
2022-12-13T17:04:21.219Z,99489.44
2022-12-13T17:06:49.809Z,99472.09
2022-12-13T17:09:16.928Z,99485.13
2022-12-13T17:11:43.303Z,99492.06
2022-12-13T17:14:09.797Z,99483.50
2022-12-13T17:16:36.325Z,99484.38
2022-12-13T17:19:02.857Z,99482.69
2022-12-13T17:21:29.846Z,99488.75
2022-12-13T17:24:01.405Z,99493.06
2022-12-13T17:26:28.916Z,99476.56
2022-12-13T17:28:55.373Z,99478.31
2022-12-13T17:31:21.876Z,99481.78
2022-12-13T17:33:48.502Z,99479.19
2022-12-13T17:36:15.904Z,99475.72
2022-12-13T17:38:46.773Z,99468.69
2022-12-13T17:41:15.431Z,99472.22
2022-12-13T17:43:43.225Z,99476.53
2022-12-13T17:46:15.719Z,99489.59
2022-12-13T17:48:44.032Z,99482.66
2022-12-13T17:51:11.063Z,99473.13
2022-12-13T17:53:39.701Z,99467.81
2022-12-13T17:56:11.806Z,99453.13
2022-12-13T17:58:39.015Z,99450.53
2022-12-13T18:01:13.578Z,99451.41
2022-12-13T18:03:40.130Z,99453.13
2022-12-13T18:06:07.210Z,99444.38
2022-12-13T18:08:39.378Z,99437.50
2022-12-13T18:11:31.726Z,99446.22
2022-12-13T18:13:55.434Z,99439.25
2022-12-13T18:16:23.893Z,99422.75
2022-12-13T18:18:54.751Z,99415.75
2022-12-13T18:21:23.035Z,99414.94
2022-12-13T18:23:55.469Z,99454.88
2022-12-13T18:26:23.189Z,99462.59
2022-12-13T18:28:49.548Z,99459.13
2022-12-13T18:31:22.257Z,99447.81
2022-12-13T18:33:50.221Z,99444.38
2022-12-13T18:36:17.565Z,99429.56
2022-12-13T18:38:44.602Z,99438.19
2022-12-13T18:41:14.826Z,99440.88
2022-12-13T18:43:42.448Z,99457.38
2022-12-13T18:46:10.177Z,99458.22
2022-12-13T18:48:36.619Z,99449.53
2022-12-13T18:51:04.892Z,99461.78
2022-12-13T18:53:33.104Z,99452.25
2022-12-13T18:56:04.916Z,99449.53
2022-12-13T18:58:32.268Z,99446.94
2022-12-13T19:00:58.791Z,99443.41
2022-12-13T19:03:26.335Z,99436.47
2022-12-13T19:05:55.804Z,99448.56
2022-12-13T19:08:25.980Z,99447.63
2022-12-13T19:10:57.555Z,99445.06
2022-12-13T19:13:25.757Z,99442.47
2022-12-13T19:15:54.352Z,99449.47
2022-12-13T19:18:21.677Z,99447.66
2022-12-13T19:20:49.611Z,99433.81
2022-12-13T19:23:16.468Z,99419.13
2022-12-13T19:25:42.921Z,99408.72
2022-12-13T19:28:11.028Z,99413.91
2022-12-13T19:30:38.576Z,99412.94
2022-12-13T19:33:07.207Z,99414.84
2022-12-13T19:35:33.777Z,99420.91
2022-12-13T19:38:00.316Z,99409.56
2022-12-13T19:40:26.981Z,99403.50
2022-12-13T19:42:53.444Z,99400.00
2022-12-13T19:45:19.945Z,99401.75
2022-12-13T19:47:48.853Z,99406.06
2022-12-13T19:50:15.358Z,99399.06
2022-12-13T19:52:41.712Z,99405.19
2022-12-13T19:55:08.278Z,99393.03
2022-12-13T19:57:35.040Z,99388.69
2022-12-13T20:00:01.507Z,99393.03
2022-12-13T20:02:27.919Z,99392.97
2022-12-13T20:04:54.301Z,99384.38
2022-12-13T20:07:20.896Z,99387.84
2022-12-13T20:09:47.230Z,99387.88
2022-12-13T20:12:13.606Z,99380.88
2022-12-13T20:14:40.016Z,99383.50
2022-12-13T20:17:06.437Z,99392.09
2022-12-13T20:19:32.873Z,99387.81
2022-12-13T20:21:59.330Z,99376.59
2022-12-13T20:24:25.713Z,99380.03
2022-12-13T20:26:52.097Z,99380.94
2022-12-13T20:29:18.646Z,99376.56
2022-12-13T20:31:48.231Z,99366.19
2022-12-13T20:34:15.463Z,99364.44
2022-12-13T20:36:42.527Z,99352.38
2022-12-13T20:39:11.306Z,99347.19
2022-12-13T20:41:37.907Z,99345.38
2022-12-13T20:44:06.281Z,99343.63
2022-12-13T20:46:33.349Z,99345.38
2022-12-13T20:49:02.452Z,99347.94
2022-12-13T20:51:30.338Z,99347.88
2022-12-13T20:53:57.064Z,99342.84
2022-12-13T20:56:29.063Z,99333.22
2022-12-13T20:58:56.004Z,99334.16
2022-12-13T21:01:28.188Z,99326.34
2022-12-13T21:03:56.183Z,99322.00
2022-12-13T21:06:22.948Z,99319.34
2022-12-13T21:08:52.324Z,99332.44
2022-12-13T21:11:27.035Z,99318.53
2022-12-13T21:14:05.334Z,99322.88
2022-12-13T21:16:40.301Z,99327.16
2022-12-13T21:19:08.673Z,99319.34
2022-12-13T21:21:35.349Z,99312.38
2022-12-13T21:24:03.145Z,99311.53
2022-12-13T21:26:35.022Z,99306.34
2022-12-13T21:29:06.526Z,99291.66
2022-12-13T21:31:33.619Z,99285.50
2022-12-13T21:34:01.825Z,99277.75
2022-12-13T21:36:34.446Z,99277.78
2022-12-13T21:39:04.933Z,99276.03
2022-12-13T21:41:31.419Z,99262.97
2022-12-13T21:43:58.703Z,99256.91
2022-12-13T21:46:54.826Z,99251.75
2022-12-13T21:49:15.452Z,99250.00
2022-12-13T21:51:47.408Z,99242.16
2022-12-13T21:54:14.470Z,99240.47
2022-12-13T21:56:59.388Z,99234.34
2022-12-13T21:59:28.568Z,99232.59
2022-12-13T22:02:13.050Z,99230.06
2022-12-13T22:04:58.570Z,99224.84
2022-12-13T22:07:27.413Z,99217.91
2022-12-13T22:09:55.089Z,99207.50
2022-12-13T22:12:23.020Z,99210.91
2022-12-13T22:14:50.169Z,99198.78
2022-12-13T22:17:17.337Z,99191.00
2022-12-13T22:19:43.831Z,99191.88
2022-12-13T22:22:15.644Z,99184.94
2022-12-13T22:24:42.023Z,99197.09
2022-12-13T22:27:08.452Z,99184.94
2022-12-13T22:29:34.828Z,99174.53
2022-12-13T22:32:01.354Z,99171.91
2022-12-13T22:34:27.744Z,99164.13
2022-12-13T22:36:54.200Z,99168.41
2022-12-13T22:39:22.711Z,99178.88
2022-12-13T22:41:50.309Z,99171.91
2022-12-13T22:44:18.643Z,99168.47
2022-12-13T22:46:45.028Z,99161.56
2022-12-13T22:49:12.551Z,99176.28
2022-12-13T22:51:39.070Z,99164.13
2022-12-13T22:54:06.314Z,99152.84
2022-12-13T22:56:32.867Z,99158.03
2022-12-13T22:59:01.882Z,99159.78
2022-12-13T23:01:34.447Z,99171.06
2022-12-13T23:04:01.425Z,99176.31
2022-12-13T23:06:30.125Z,99178.88
2022-12-13T23:08:59.216Z,99185.81
2022-12-13T23:11:45.018Z,99191.88
2022-12-13T23:14:14.464Z,99174.59
2022-12-13T23:16:41.749Z,99174.53
2022-12-13T23:19:40.548Z,99165.00
2022-12-13T23:21:57.055Z,99162.44
2022-12-13T23:24:23.405Z,99166.78
2022-12-13T23:26:49.807Z,99159.81
2022-12-13T23:29:16.172Z,99173.72
2022-12-13T23:31:48.504Z,99169.41
2022-12-13T23:34:16.137Z,99165.03
2022-12-13T23:36:42.756Z,99153.72
2022-12-13T23:39:10.335Z,99145.94
2022-12-13T23:41:36.914Z,99154.56
2022-12-13T23:44:04.315Z,99137.22
2022-12-13T23:46:33.091Z,99147.63
2022-12-13T23:49:00.759Z,99156.31
2022-12-13T23:51:27.191Z,99150.31
2022-12-13T23:53:54.290Z,99142.47
2022-12-13T23:56:21.004Z,99143.38
2022-12-13T23:58:47.874Z,99144.22
